Time;durP1;ratioP1;P1;durP2;ratioP2;P2;SDS_P1;SDS_P2;PMS_P1;PMS_P2;Temp;Humidity;BMP_temperature;BMP_pressure;BME280_temperature;BME280_humidity;BME280_pressure;Samples;Min_cycle;Max_cycle;Signal;HPM_P1;HPM_P2
2022/05/29 00:01:41;;;;;;;28.10;10.10;;;;;;;8.39;100.00;100760.66;4971271;28;20066;-89
2022/05/29 00:04:06;;;;;;;42.63;11.43;;;;;;;8.35;100.00;100756.63;4973714;28;20026;-89
2022/05/29 00:06:39;;;;;;;45.57;12.40;;;;;;;8.38;100.00;100762.50;4973538;28;20088;-90
2022/05/29 00:09:04;;;;;;;39.33;10.68;;;;;;;8.37;100.00;100760.81;4953925;28;20039;-88
2022/05/29 00:11:30;;;;;;;34.90;11.43;;;;;;;8.41;100.00;100764.06;4969452;28;20793;-88
2022/05/29 00:14:00;;;;;;;33.47;10.90;;;;;;;8.36;100.00;100748.50;4986275;28;20034;-90
2022/05/29 00:16:27;;;;;;;38.20;9.70;;;;;;;8.36;100.00;100759.16;4973393;28;20077;-89
2022/05/29 00:18:52;;;;;;;48.33;13.77;;;;;;;8.34;100.00;100750.47;4973133;28;20158;-89
2022/05/29 00:21:17;;;;;;;43.07;10.80;;;;;;;8.35;100.00;100757.44;4973031;28;20117;-89
2022/05/29 00:23:43;;;;;;;36.00;10.23;;;;;;;8.30;100.00;100758.91;4973307;28;20379;-89
2022/05/29 00:26:09;;;;;;;35.27;11.73;;;;;;;8.28;100.00;100753.72;4973162;28;20037;-89
2022/05/29 00:28:35;;;;;;;42.20;10.68;;;;;;;8.27;100.00;100757.38;4969983;28;20631;-88
2022/05/29 00:31:00;;;;;;;45.78;10.45;;;;;;;8.29;100.00;100750.06;4965118;28;20038;-89
2022/05/29 00:33:25;;;;;;;42.40;9.07;;;;;;;8.25;100.00;100746.88;4991738;28;20030;-89
2022/05/29 00:35:52;;;;;;;39.53;10.33;;;;;;;8.28;100.00;100752.88;4980836;28;20046;-89
2022/05/29 00:38:18;;;;;;;37.10;10.18;;;;;;;8.21;100.00;100741.97;4972603;28;20022;-89
2022/05/29 00:40:54;;;;;;;40.75;11.52;;;;;;;8.14;100.00;100741.72;4990393;28;20034;-88
2022/05/29 00:43:21;;;;;;;33.60;9.20;;;;;;;8.20;100.00;100756.28;4957168;28;20109;-89
2022/05/29 00:45:51;;;;;;;55.17;12.43;;;;;;;8.19;100.00;100743.94;4956890;28;20026;-89
2022/05/29 00:48:18;;;;;;;46.75;12.07;;;;;;;8.15;100.00;100747.91;4956623;28;20038;-88
2022/05/29 00:50:48;;;;;;;25.73;9.38;;;;;;;8.22;100.00;100743.69;4972925;28;20387;-89
2022/05/29 00:53:15;;;;;;;41.78;11.80;;;;;;;8.17;100.00;100744.13;4972224;28;20057;-88
2022/05/29 00:55:45;;;;;;;32.70;9.98;;;;;;;8.19;100.00;100744.81;4956770;28;20117;-89
2022/05/29 00:58:11;;;;;;;43.20;11.45;;;;;;;8.18;100.00;100748.44;4972522;28;20137;-88
2022/05/29 01:00:37;;;;;;;40.78;9.07;;;;;;;8.20;100.00;100745.63;4956654;28;20054;-89
2022/05/29 01:03:04;;;;;;;31.85;9.40;;;;;;;8.18;100.00;100742.28;4956762;28;20049;-89
2022/05/29 01:05:32;;;;;;;34.50;9.98;;;;;;;8.06;100.00;100735.50;4956417;28;20065;-89
2022/05/29 01:08:16;;;;;;;40.88;9.85;;;;;;;8.01;100.00;100728.78;4957895;28;20045;-89
2022/05/29 01:10:52;;;;;;;38.20;11.70;;;;;;;7.97;100.00;100730.06;4960530;28;20046;-89
2022/05/29 01:13:52;;;;;;;33.63;9.32;;;;;;;7.95;100.00;100726.69;4976693;28;20034;-88
2022/05/29 01:16:43;;;;;;;32.17;9.07;;;;;;;7.87;100.00;100729.25;4978113;28;20034;-90
2022/05/29 01:19:46;;;;;;;40.15;11.57;;;;;;;7.85;100.00;100728.56;4976611;28;20030;-88
2022/05/29 01:22:50;;;;;;;29.85;8.90;;;;;;;7.78;100.00;100711.53;4953714;28;20040;-89
2022/05/29 01:25:47;;;;;;;31.75;8.85;;;;;;;7.76;100.00;100724.13;4954566;28;20030;-88
2022/05/29 01:28:48;;;;;;;36.22;8.90;;;;;;;7.72;100.00;100710.25;4954011;28;20034;-88
2022/05/29 01:31:31;;;;;;;34.33;9.73;;;;;;;7.70;100.00;100717.56;4933769;28;20220;-87
2022/05/29 01:34:12;;;;;;;38.85;12.48;;;;;;;7.63;100.00;100710.31;4976245;28;20030;-89
2022/05/29 01:36:59;;;;;;;40.20;9.57;;;;;;;7.61;100.00;100716.59;4987673;28;20038;-91
2022/05/29 01:39:31;;;;;;;34.38;9.25;;;;;;;7.53;100.00;100711.16;4976952;28;20041;-91
2022/05/29 01:42:01;;;;;;;34.60;8.68;;;;;;;7.57;100.00;100722.34;4976092;28;20104;-92
2022/05/29 01:44:38;;;;;;;36.58;10.65;;;;;;;7.51;100.00;100706.97;4976332;28;20042;-89
2022/05/29 01:47:11;;;;;;;35.13;10.23;;;;;;;7.55;100.00;100713.69;4975638;28;20907;-88
2022/05/29 01:49:43;;;;;;;36.38;9.45;;;;;;;7.57;100.00;100709.91;4975990;28;20046;-88
2022/05/29 01:52:15;;;;;;;39.92;9.63;;;;;;;7.63;100.00;100715.63;4995502;28;20077;-88
2022/05/29 01:54:47;;;;;;;29.65;9.15;;;;;;;7.62;100.00;100714.78;4959930;28;20549;-89
2022/05/29 01:57:29;;;;;;;30.20;8.93;;;;;;;7.64;100.00;100714.66;4975785;28;20030;-89
2022/05/29 02:00:02;;;;;;;28.95;9.02;;;;;;;7.59;100.00;100713.25;4992270;28;20121;-90
2022/05/29 02:02:37;;;;;;;34.40;8.77;;;;;;;7.65;100.00;100703.84;4976434;28;20117;-88
2022/05/29 02:05:07;;;;;;;32.83;9.43;;;;;;;7.66;100.00;100707.38;4975684;28;20109;-89
2022/05/29 02:07:47;;;;;;;37.47;9.43;;;;;;;7.63;100.00;100700.50;4991699;28;20044;-89
2022/05/29 02:10:34;;;;;;;25.25;8.80;;;;;;;7.63;100.00;100705.81;4959194;28;20034;-87
2022/05/29 02:13:10;;;;;;;35.75;9.60;;;;;;;7.69;100.00;100704.41;4951618;28;20026;-89
2022/05/29 02:15:49;;;;;;;29.33;9.30;;;;;;;7.60;100.00;100693.66;4959476;28;20034;-89
2022/05/29 02:18:47;;;;;;;37.85;10.02;;;;;;;7.65;100.00;100697.72;4959259;28;20026;-88
2022/05/29 02:21:19;;;;;;;37.30;9.85;;;;;;;7.66;100.00;100694.91;4952728;28;20030;-89
2022/05/29 02:23:49;;;;;;;34.58;9.02;;;;;;;7.70;100.00;100695.44;4975327;28;20034;-89
2022/05/29 02:26:21;;;;;;;30.02;10.27;;;;;;;7.72;100.00;100688.19;4975308;28;20122;-89
2022/05/29 02:28:52;;;;;;;39.63;10.00;;;;;;;7.72;100.00;100690.84;4975290;28;20092;-89
2022/05/29 02:31:35;;;;;;;36.47;9.68;;;;;;;7.75;100.00;100687.88;4955945;28;20126;-86
2022/05/29 02:34:15;;;;;;;40.70;11.20;;;;;;;7.73;100.00;100681.91;4967732;28;20917;-89
2022/05/29 02:37:07;;;;;;;33.97;9.07;;;;;;;7.76;100.00;100679.75;4975009;28;20026;-89
2022/05/29 02:39:43;;;;;;;36.22;8.50;;;;;;;7.78;100.00;100682.28;4951782;28;20057;-88
2022/05/29 02:42:27;;;;;;;39.55;10.75;;;;;;;7.79;100.00;100678.63;4958898;28;20501;-89
2022/05/29 02:45:07;;;;;;;41.78;9.07;;;;;;;7.80;100.00;100677.66;4975374;28;20490;-89
2022/05/29 02:47:50;;;;;;;37.83;9.60;;;;;;;7.80;100.00;100675.84;4991047;28;20073;-89
2022/05/29 02:50:28;;;;;;;34.55;9.45;;;;;;;7.83;100.00;100666.72;4975142;28;20795;-90
2022/05/29 02:52:56;;;;;;;39.15;10.05;;;;;;;7.89;100.00;100668.81;4974854;28;20038;-88
2022/05/29 02:55:23;;;;;;;31.92;9.13;;;;;;;7.87;100.00;100670.78;4974665;28;20034;-89
2022/05/29 02:57:59;;;;;;;31.02;9.25;;;;;;;7.91;100.00;100658.84;4958574;28;20101;-89
2022/05/29 03:00:29;;;;;;;39.67;9.82;;;;;;;7.92;100.00;100665.03;4958874;28;20030;-89
2022/05/29 03:03:02;;;;;;;33.50;10.23;;;;;;;7.96;100.00;100674.34;4974541;28;20053;-89
2022/05/29 03:05:36;;;;;;;38.53;11.35;;;;;;;7.92;100.00;100668.50;4974422;28;20096;-89
2022/05/29 03:08:20;;;;;;;29.48;9.02;;;;;;;7.96;100.00;100661.94;4974582;28;20026;-89
2022/05/29 03:10:55;;;;;;;34.95;10.15;;;;;;;7.99;100.00;100658.97;4974470;28;20910;-89
2022/05/29 03:13:46;;;;;;;36.80;10.27;;;;;;;8.03;100.00;100659.53;4974575;28;20096;-86
2022/05/29 03:16:37;;;;;;;35.65;8.60;;;;;;;8.08;100.00;100664.38;4952016;28;20060;-89
2022/05/29 03:19:27;;;;;;;31.23;9.40;;;;;;;8.12;100.00;100663.09;4966772;28;20030;-88
2022/05/29 03:22:15;;;;;;;25.48;8.68;;;;;;;8.17;100.00;100659.00;4973025;28;20057;-89
2022/05/29 03:24:57;;;;;;;28.67;8.18;;;;;;;8.20;100.00;100661.38;4991617;28;20041;-88
2022/05/29 03:27:36;;;;;;;27.52;9.25;;;;;;;8.21;100.00;100656.88;4991829;28;20022;-88
2022/05/29 03:30:05;;;;;;;31.98;10.38;;;;;;;8.28;100.00;100665.94;4973567;28;20064;-89
2022/05/29 03:32:33;;;;;;;32.85;8.20;;;;;;;8.28;100.00;100657.94;4954800;28;20023;-88
2022/05/29 03:34:58;;;;;;;37.72;11.05;;;;;;;8.27;100.00;100661.63;4989923;28;20037;-88
2022/05/29 03:37:23;;;;;;;31.20;9.33;;;;;;;8.32;100.00;100664.66;4974011;28;20018;-88
2022/05/29 03:39:49;;;;;;;28.07;8.13;;;;;;;8.38;100.00;100658.75;4991073;28;20117;-88
2022/05/29 03:42:16;;;;;;;21.97;8.03;;;;;;;8.40;100.00;100647.97;4989940;28;20029;-89
2022/05/29 03:44:41;;;;;;;28.23;8.02;;;;;;;8.58;100.00;100654.13;4975272;28;20030;-88
2022/05/29 03:47:07;;;;;;;24.95;8.07;;;;;;;8.70;100.00;100653.91;4974721;28;20493;-88
2022/05/29 03:49:32;;;;;;;23.07;7.73;;;;;;;8.69;100.00;100649.59;4957979;28;20038;-88
2022/05/29 03:51:58;;;;;;;32.40;8.63;;;;;;;8.77;100.00;100649.66;4958042;28;20134;-88
2022/05/29 03:54:23;;;;;;;42.00;11.00;;;;;;;8.81;100.00;100643.88;4959296;28;20506;-89
2022/05/29 03:56:49;;;;;;;30.15;9.70;;;;;;;8.85;100.00;100633.75;4958747;28;20513;-88
2022/05/29 03:59:15;;;;;;;25.75;8.05;;;;;;;8.91;100.00;100633.13;4974321;28;20461;-88
2022/05/29 04:01:40;;;;;;;22.67;7.95;;;;;;;8.86;100.00;100633.59;4980821;28;20279;-88
2022/05/29 04:04:06;;;;;;;29.92;7.35;;;;;;;8.81;100.00;100621.75;4974522;28;20039;-88
2022/05/29 04:06:34;;;;;;;22.23;6.57;;;;;;;8.94;100.00;100624.81;4971675;28;20026;-88
2022/05/29 04:12:04;;;;;;;34.00;7.38;;;;;;;9.10;100.00;100626.78;4971866;28;20034;-89
2022/05/29 04:14:50;;;;;;;25.98;6.50;;;;;;;9.23;100.00;100613.06;4972006;28;20071;-88
2022/05/29 04:17:19;;;;;;;27.70;6.90;;;;;;;9.44;100.00;100616.19;4970056;28;20035;-88
2022/05/29 04:19:45;;;;;;;29.52;7.10;;;;;;;9.54;100.00;100612.56;4979595;28;20023;-88
2022/05/29 04:22:16;;;;;;;32.83;6.43;;;;;;;9.69;100.00;100605.63;4959333;28;20447;-88
2022/05/29 04:24:41;;;;;;;25.60;7.50;;;;;;;9.89;100.00;100611.53;4966198;28;20038;-89
2022/05/29 04:27:13;;;;;;;26.50;6.37;;;;;;;10.03;100.00;100607.44;4972690;28;20033;-88
2022/05/29 04:29:39;;;;;;;27.27;7.93;;;;;;;10.16;100.00;100607.81;4975368;28;20117;-89
2022/05/29 04:34:56;;;;;;;22.08;6.10;;;;;;;10.24;100.00;100596.31;4972846;28;20046;-88
2022/05/29 04:37:23;;;;;;;20.55;5.75;;;;;;;10.42;100.00;100593.50;4989873;28;20610;-88
2022/05/29 04:39:48;;;;;;;;;;;;;;;10.43;100.00;100590.69;4972422;28;20034;-88
2022/05/29 04:42:14;;;;;;;19.40;4.90;;;;;;;10.51;100.00;100585.38;4971896;28;20425;-88
2022/05/29 04:44:39;;;;;;;23.43;5.83;;;;;;;10.60;100.00;100586.19;4972047;28;20105;-88
2022/05/29 04:47:04;;;;;;;16.20;5.00;;;;;;;10.67;100.00;100579.19;4973017;28;20058;-89
2022/05/29 04:49:31;;;;;;;27.43;5.63;;;;;;;10.77;100.00;100566.50;4956080;28;20026;-89
2022/05/29 04:51:56;;;;;;;;;;;;;;;10.88;100.00;100581.34;4967851;28;20041;-89
2022/05/29 04:54:21;;;;;;;18.30;5.57;;;;;;;10.76;100.00;100572.00;4956943;28;19932;-88
2022/05/29 04:56:48;;;;;;;19.80;5.47;;;;;;;10.99;100.00;100572.97;4972838;28;20058;-89
2022/05/29 04:59:13;;;;;;;22.75;6.00;;;;;;;11.15;100.00;100566.78;4956617;28;20042;-88
2022/05/29 05:01:39;;;;;;;23.35;4.88;;;;;;;11.27;100.00;100569.91;4972515;28;20073;-88
2022/05/29 05:04:04;;;;;;;24.90;6.20;;;;;;;11.34;100.00;100562.88;4972979;28;20538;-88
2022/05/29 05:06:29;;;;;;;23.33;5.33;;;;;;;11.51;100.00;100552.13;4972857;28;20030;-88
2022/05/29 05:08:55;;;;;;;27.80;7.23;;;;;;;11.71;100.00;100553.38;4956614;28;20031;-89
2022/05/29 05:11:20;;;;;;;21.37;5.30;;;;;;;11.83;100.00;100549.31;4956434;28;20030;-89
2022/05/29 05:13:46;;;;;;;21.67;5.07;;;;;;;12.20;100.00;100539.75;4957375;28;20038;-89
2022/05/29 05:16:11;;;;;;;16.77;4.60;;;;;;;12.46;100.00;100525.16;4973239;28;20827;-88
2022/05/29 05:18:36;;;;;;;24.37;7.03;;;;;;;12.44;100.00;100506.59;4988955;28;20706;-88
2022/05/29 05:21:06;;;;;;;29.50;6.67;;;;;;;12.57;100.00;100491.75;4977732;28;20037;-89
2022/05/29 05:23:37;;;;;;;21.83;4.80;;;;;;;12.83;100.00;100469.88;4957350;28;20033;-88
2022/05/29 05:26:37;;;;;;;20.10;5.13;;;;;;;12.94;100.00;100431.09;4957229;28;20038;-89
2022/05/29 05:29:03;;;;;;;22.20;4.60;;;;;;;13.47;100.00;100446.03;4960083;28;20057;-87
2022/05/29 05:31:29;;;;;;;18.88;5.93;;;;;;;13.75;100.00;100437.25;4971947;28;20537;-88
2022/05/29 05:34:02;;;;;;;22.88;5.57;;;;;;;14.33;100.00;100394.22;4955682;28;20034;-88
2022/05/29 05:36:35;;;;;;;18.98;4.32;;;;;;;14.71;100.00;100346.31;4952183;28;20359;-89
2022/05/29 05:39:08;;;;;;;24.45;6.18;;;;;;;15.16;100.00;100333.25;4956277;28;20037;-89
2022/05/29 05:41:35;;;;;;;21.48;4.32;;;;;;;15.27;100.00;100212.69;4964745;23;20420;-77
2022/05/29 05:44:01;;;;;;;14.80;4.38;;;;;;;15.79;100.00;100230.69;4973728;28;20044;-78
2022/05/29 05:46:26;;;;;;;22.67;4.85;;;;;;;16.41;100.00;100147.66;4957773;28;20454;-75
2022/05/29 05:48:51;;;;;;;21.37;5.23;;;;;;;16.04;100.00;100181.56;4974777;28;20027;-76
2022/05/29 05:51:17;;;;;;;15.30;4.87;;;;;;;14.57;100.00;100102.81;4957383;28;20093;-76
2022/05/29 05:53:42;;;;;;;25.23;5.77;;;;;;;13.88;100.00;100248.72;4968385;28;20045;-76
2022/05/29 05:56:11;;;;;;;20.37;5.80;;;;;;;13.16;100.00;100368.53;4990566;28;20026;-76
2022/05/29 05:58:37;;;;;;;21.58;5.05;;;;;;;13.09;100.00;100378.34;4989491;28;20415;-75
2022/05/29 06:01:05;;;;;;;19.48;5.20;;;;;;;12.55;100.00;100375.94;5004438;28;20045;-75
2022/05/29 06:03:30;;;;;;;27.63;5.07;;;;;;;12.48;100.00;100463.38;4972080;28;20859;-76
2022/05/29 06:05:56;;;;;;;20.17;5.00;;;;;;;13.51;100.00;100533.16;4989286;28;20033;-77
2022/05/29 06:08:21;;;;;;;20.23;4.67;;;;;;;15.04;100.00;100480.03;4989473;28;20033;-77
2022/05/29 06:10:46;;;;;;;22.83;5.23;;;;;;;15.91;100.00;100265.88;4989179;28;20045;-75
2022/05/29 06:13:12;;;;;;;19.53;4.57;;;;;;;15.85;100.00;100075.63;4971655;28;20113;-77
2022/05/29 06:15:38;;;;;;;23.05;4.72;;;;;;;14.85;100.00;100128.69;4985105;28;20090;-77
2022/05/29 06:18:04;;;;;;;20.92;4.53;;;;;;;14.76;100.00;100171.06;4981469;28;20551;-77
2022/05/29 06:20:29;;;;;;;15.38;4.03;;;;;;;14.40;100.00;100233.09;4977781;28;20047;-77
2022/05/29 06:22:54;;;;;;;20.63;4.60;;;;;;;14.65;100.00;100289.84;4983500;28;20490;-76
2022/05/29 06:25:20;;;;;;;13.37;5.03;;;;;;;16.25;100.00;100305.19;4979255;28;20044;-77
2022/05/29 06:27:45;;;;;;;24.58;4.72;;;;;;;16.84;100.00;100176.63;4977751;28;20089;-77
2022/05/29 06:30:14;;;;;;;25.03;4.97;;;;;;;14.44;100.00;100011.44;4969855;28;20034;-77
2022/05/29 06:32:40;;;;;;;27.60;4.80;;;;;;;13.83;100.00;100210.91;4960509;28;20027;-76
2022/05/29 06:35:08;;;;;;;21.92;5.05;;;;;;;14.01;100.00;100281.00;4970687;28;20142;-76
2022/05/29 06:37:35;;;;;;;16.10;4.38;;;;;;;14.72;100.00;100237.78;4967762;28;20502;-76
2022/05/29 06:40:01;;;;;;;20.02;5.47;;;;;;;15.85;100.00;100255.94;4963296;28;20026;-78
2022/05/29 06:42:26;;;;;;;28.47;4.70;;;;;;;15.29;100.00;100146.06;4960447;28;20023;-76
2022/05/29 06:44:51;;;;;;;17.30;4.77;;;;;;;14.46;100.00;100052.34;4980133;28;20096;-76
2022/05/29 06:47:18;;;;;;;28.93;5.47;;;;;;;13.10;100.00;100206.59;4971771;28;20030;-76
2022/05/29 06:49:46;;;;;;;21.15;4.38;;;;;;;13.04;100.00;100357.47;4978907;28;20039;-76
2022/05/29 06:52:12;;;;;;;18.40;5.07;;;;;;;14.52;100.00;100457.16;4969316;28;20478;-75
2022/05/29 06:54:38;;;;;;;28.23;4.97;;;;;;;15.50;100.00;100309.94;4979318;28;20030;-76
2022/05/29 06:57:06;;;;;;;19.00;3.88;;;;;;;16.73;100.00;100201.56;4969918;28;20025;-76
2022/05/29 07:06:58;;;;;;;25.50;4.60;;;;;;;16.34;97.72;100016.72;4960878;28;20121;-75
2022/05/29 07:07:49;;;;;;;19.02;3.40;;;;;;;16.01;100.00;100196.28;4976776;28;20085;-77
2022/05/29 07:10:15;;;;;;;18.73;4.67;;;;;;;16.12;97.94;100067.41;4968630;28;20030;-77
2022/05/29 07:12:40;;;;;;;14.03;4.23;;;;;;;16.09;100.00;100100.16;4960089;28;20035;-76
2022/05/29 07:15:06;;;;;;;20.53;4.30;;;;;;;15.69;100.00;100149.53;4969263;28;20053;-79
2022/05/29 07:17:33;;;;;;;22.88;4.95;;;;;;;15.22;100.00;100088.75;4966413;28;20170;-77
2022/05/29 07:19:58;;;;;;;18.02;4.00;;;;;;;14.05;100.00;100050.63;4962046;28;20026;-76
2022/05/29 07:22:25;;;;;;;20.37;3.50;;;;;;;15.46;100.00;100332.91;4960392;28;20037;-77
2022/05/29 07:24:51;;;;;;;23.27;3.88;;;;;;;17.01;100.00;100294.75;4977399;28;20038;-78
2022/05/29 07:27:17;;;;;;;;;;;;;;;16.18;90.01;99916.56;4968642;28;20496;-77
2022/05/29 07:29:42;;;;;;;19.65;3.70;;;;;;;16.19;91.24;99979.31;4977379;28;19920;-77
2022/05/29 07:32:09;;;;;;;15.57;4.40;;;;;;;16.46;90.19;100020.38;4969172;28;20034;-77
2022/05/29 07:34:34;;;;;;;11.60;3.17;;;;;;;17.42;88.65;100136.94;4958987;28;20118;-77
2022/05/29 07:37:06;;;;;;;20.20;5.53;;;;;;;17.29;82.47;99979.56;4960262;28;20149;-76
2022/05/29 07:39:37;;;;;;;16.63;3.45;;;;;;;16.68;88.08;100031.59;4974976;28;20049;-77
2022/05/29 07:44:47;;;;;;;13.33;4.03;;;;;;;17.12;83.65;100018.16;4977770;28;20049;-75
2022/05/29 07:47:12;;;;;;;16.33;4.23;;;;;;;17.30;81.48;99989.31;4979089;28;20034;-76
2022/05/29 07:49:39;;;;;;;19.90;3.87;;;;;;;17.56;81.41;100033.25;4976391;28;20419;-78
2022/05/29 07:52:04;;;;;;;;;;;;;;;17.33;77.81;99922.47;4969324;28;20026;-77
2022/05/29 07:54:29;;;;;;;13.90;3.67;;;;;;;17.38;80.82;100028.66;4959329;28;19925;-76
2022/05/29 07:56:55;;;;;;;17.30;4.07;;;;;;;18.20;77.28;100078.78;4979010;28;20022;-77
2022/05/29 07:59:21;;;;;;;12.27;3.43;;;;;;;18.23;73.02;99956.75;4977783;28;20121;-79
2022/05/29 08:01:47;;;;;;;;;;;;;;;19.14;70.74;100033.00;4960434;28;20027;-77
2022/05/29 08:04:14;;;;;;;14.35;3.67;;;;;;;18.89;64.67;99801.47;4978772;28;19917;-77
2022/05/29 08:06:39;;;;;;;;;;;;;;;18.71;65.11;99799.75;4979125;28;20073;-77
2022/05/29 08:09:05;;;;;;;13.68;3.13;;;;;;;18.52;67.43;99869.34;4978867;28;19925;-77
2022/05/29 08:11:30;;;;;;;13.68;3.08;;;;;;;18.53;65.24;99816.94;4975789;28;20503;-78
2022/05/29 08:13:56;;;;;;;10.77;3.20;;;;;;;18.54;67.11;99923.16;4978554;28;20117;-78
2022/05/29 08:16:21;;;;;;;12.80;3.67;;;;;;;18.20;65.67;99803.22;4976879;28;20483;-77
2022/05/29 08:18:47;;;;;;;18.43;4.40;;;;;;;18.12;68.45;99910.56;4963388;28;20035;-78
2022/05/29 08:21:12;;;;;;;11.38;3.50;;;;;;;18.94;63.04;99890.00;4967740;28;20030;-77
2022/05/29 08:23:38;;;;;;;15.83;3.47;;;;;;;18.45;62.82;99841.63;4974613;28;20049;-77
2022/05/29 08:31:31;;;;;;;11.95;3.30;;;;;;;17.89;66.77;99851.13;4964778;28;20044;-77
2022/05/29 08:33:57;;;;;;;14.23;3.57;;;;;;;17.35;73.34;99972.47;4960834;28;20030;-77
2022/05/29 08:36:25;;;;;;;14.10;3.77;;;;;;;18.16;67.98;99954.13;4980479;28;20019;-77
2022/05/29 08:38:55;;;;;;;17.08;3.30;;;;;;;17.83;62.70;99754.84;4977271;28;20039;-78
2022/05/29 08:41:42;;;;;;;15.43;3.35;;;;;;;18.21;65.85;99951.56;4981993;28;20069;-77
2022/05/29 08:44:17;;;;;;;18.75;3.88;;;;;;;18.83;61.56;99888.16;4961360;28;20566;-77
2022/05/29 08:46:49;;;;;;;10.05;3.65;;;;;;;19.01;60.82;99927.75;4974760;28;20039;-77
2022/05/29 08:49:18;;;;;;;14.57;2.97;;;;;;;18.21;59.79;99721.13;4977424;28;20026;-77
2022/05/29 08:51:52;;;;;;;12.95;3.15;;;;;;;17.40;66.91;99859.28;4980387;28;20547;-77
2022/05/29 08:54:33;;;;;;;12.90;3.78;;;;;;;18.08;65.43;99974.22;4978594;28;20034;-77
2022/05/29 08:57:21;;;;;;;14.20;4.15;;;;;;;18.30;65.64;100004.19;4960708;28;20030;-78
2022/05/29 08:59:57;;;;;;;12.90;3.08;;;;;;;17.67;67.93;99943.38;4962528;28;20681;-76
2022/05/29 09:02:22;;;;;;;;;;;;;;;17.23;77.94;100118.06;4951964;28;20034;-76
2022/05/29 09:05:01;;;;;;;15.43;3.70;;;;;;;17.42;76.61;100099.19;4960385;28;19916;-77
2022/05/29 09:07:31;;;;;;;17.02;3.53;;;;;;;16.35;78.31;99976.09;4965216;28;20480;-76
2022/05/29 09:10:04;;;;;;;20.50;4.65;;;;;;;16.21;86.08;100158.50;4978191;28;20073;-77
2022/05/29 09:12:44;;;;;;;12.45;3.35;;;;;;;17.17;85.41;100283.47;4942584;28;20034;-76
2022/05/29 09:15:39;;;;;;;23.17;3.60;;;;;;;17.74;77.58;100194.34;4974572;28;20418;-76
2022/05/29 09:18:14;;;;;;;;;;;;;;;17.77;78.26;100202.03;4958557;28;20340;-76
2022/05/29 09:20:49;;;;;;;16.13;2.90;;;;;;;18.09;72.36;100100.09;4958780;28;20035;-77
2022/05/29 09:23:21;;;;;;;14.05;3.40;;;;;;;17.82;70.84;100031.31;4977021;28;20720;-77
2022/05/29 09:25:47;;;;;;;22.52;4.43;;;;;;;18.23;72.06;100149.38;4975398;28;20039;-76
2022/05/29 09:28:24;;;;;;;21.63;5.00;;;;;;;17.52;67.00;99857.44;4967599;28;20577;-76
2022/05/29 09:30:54;;;;;;;14.32;3.20;;;;;;;17.27;69.38;99916.91;4979991;28;20039;-77
2022/05/29 09:33:25;;;;;;;22.92;3.60;;;;;;;18.45;67.07;100070.50;4969081;28;20031;-76
2022/05/29 09:36:00;;;;;;;12.65;3.22;;;;;;;19.05;63.77;100045.25;4980474;28;20042;-77
2022/05/29 09:38:40;;;;;;;9.35;3.45;;;;;;;18.70;62.11;99921.63;4968764;28;20149;-77
2022/05/29 09:41:19;;;;;;;13.07;3.47;;;;;;;19.02;68.75;100186.38;4964733;28;20034;-77
2022/05/29 09:44:08;;;;;;;16.55;3.85;;;;;;;18.29;67.72;100015.25;4979045;28;20063;-76
2022/05/29 09:49:40;;;;;;;12.73;2.92;;;;;;;19.47;63.94;100110.06;4955635;28;20034;-77
2022/05/29 09:49:41;;;;;;;14.48;3.42;;;;;;;18.61;62.36;99906.84;4978277;28;20061;-75
2022/05/29 09:52:10;;;;;;;15.70;3.97;;;;;;;18.95;62.63;99979.03;4971458;28;20018;-77
2022/05/29 09:54:43;;;;;;;12.93;3.13;;;;;;;19.79;58.48;99961.56;4977560;28;20042;-77
2022/05/29 09:57:23;;;;;;;9.15;2.72;;;;;;;21.01;54.77;100003.44;4972278;28;20030;-77
2022/05/29 09:59:54;;;;;;;8.70;2.75;;;;;;;20.60;53.19;99859.13;4964108;28;20384;-77
2022/05/29 10:02:25;;;;;;;15.25;2.95;;;;;;;19.79;50.52;99558.06;4981516;28;20041;-77
2022/05/29 10:04:54;;;;;;;13.95;3.55;;;;;;;18.54;55.50;99617.75;4980699;28;20045;-78
2022/05/29 10:07:37;;;;;;;11.80;2.95;;;;;;;19.79;57.71;99946.13;4981498;28;20022;-79
2022/05/29 10:10:26;;;;;;;13.98;2.85;;;;;;;20.94;51.46;99864.44;4980229;28;20185;-77
2022/05/29 10:12:58;;;;;;;11.90;2.60;;;;;;;21.37;50.40;99870.91;4965680;28;20206;-77
2022/05/29 10:15:26;;;;;;;9.88;2.30;;;;;;;20.94;49.34;99709.78;4967686;28;20113;-77
2022/05/29 10:17:58;;;;;;;8.02;2.50;;;;;;;21.36;49.74;99839.41;4962949;28;20030;-77
2022/05/29 10:20:25;;;;;;;11.63;2.40;;;;;;;21.85;48.01;99797.78;4967253;28;20038;-77
2022/05/29 10:22:55;;;;;;;6.90;2.20;;;;;;;21.67;47.75;99715.59;4984097;28;20030;-80
2022/05/29 10:25:24;;;;;;;10.23;1.83;;;;;;;20.84;46.84;99498.13;4986310;28;20030;-79
2022/05/29 10:27:53;;;;;;;10.75;1.90;;;;;;;20.27;46.24;99436.34;4966927;28;20033;-77
2022/05/29 10:30:49;;;;;;;10.43;2.55;;;;;;;20.51;48.34;99634.72;4953674;28;20126;-78
2022/05/29 10:33:24;;;;;;;9.00;2.40;;;;;;;21.39;46.85;99686.84;4981447;28;20041;-78
2022/05/29 10:36:13;;;;;;;8.52;2.08;;;;;;;22.08;46.90;99808.28;4983098;28;20077;-77
2022/05/29 10:38:39;;;;;;;10.18;2.30;;;;;;;20.47;46.84;99479.91;4953984;28;20297;-80
2022/05/29 10:41:07;;;;;;;8.15;2.88;;;;;;;21.10;47.97;99648.34;4970700;28;20323;-77
2022/05/29 10:43:39;;;;;;;5.32;1.63;;;;;;;21.65;44.69;99581.13;4962624;28;20066;-77
2022/05/29 10:46:12;;;;;;;7.93;2.08;;;;;;;22.40;45.35;99784.84;4975620;28;20543;-78
2022/05/29 10:49:00;;;;;;;10.55;3.17;;;;;;;22.45;45.25;99747.63;4976294;28;20125;-77
2022/05/29 10:51:35;;;;;;;9.13;2.72;;;;;;;20.41;46.67;99432.94;4980434;28;20077;-78
2022/05/29 10:54:35;;;;;;;10.65;2.50;;;;;;;20.67;50.05;99679.94;4977321;28;20120;-78
2022/05/29 10:57:19;;;;;;;14.25;3.70;;;;;;;21.88;50.28;99971.97;4956787;28;20050;-77
2022/05/29 11:00:15;;;;;;;9.55;2.72;;;;;;;20.95;48.11;99569.53;4976895;28;20038;-78
2022/05/29 11:03:18;;;;;;;8.55;2.50;;;;;;;21.19;53.18;99936.38;4948443;28;20046;-78
2022/05/29 11:06:14;;;;;;;12.15;2.25;;;;;;;21.52;52.51;99921.03;4978122;28;20125;-78
2022/05/29 11:09:02;;;;;;;9.02;2.63;;;;;;;20.30;54.85;99840.50;4960045;28;20042;-78
2022/05/29 11:11:55;;;;;;;15.10;2.70;;;;;;;19.78;56.02;99782.00;4966186;28;20495;-77
2022/05/29 11:14:36;;;;;;;13.57;3.42;;;;;;;18.91;59.14;99772.31;4977181;28;20432;-77
2022/05/29 11:17:34;;;;;;;10.85;3.15;;;;;;;20.47;56.63;100000.41;4979032;28;20407;-77
2022/05/29 11:20:34;;;;;;;13.45;2.97;;;;;;;20.98;52.42;99843.88;4967558;28;20041;-78
2022/05/29 11:23:08;;;;;;;9.25;2.47;;;;;;;21.39;49.97;99794.63;4980166;28;20579;-78
2022/05/29 11:26:25;;;;;;;5.97;2.20;;;;;;;21.75;50.77;99909.91;4959332;28;20046;-77
2022/05/29 11:29:15;;;;;;;11.68;3.15;;;;;;;20.45;51.47;99666.38;4925597;28;20503;-77
2022/05/29 11:32:14;;;;;;;10.98;2.60;;;;;;;19.42;51.97;99500.97;4964269;28;20035;-78
2022/05/29 11:34:59;;;;;;;9.05;2.53;;;;;;;20.18;55.22;99893.94;4964169;28;20042;-77
2022/05/29 11:37:29;;;;;;;7.93;2.55;;;;;;;20.84;50.62;99736.81;4965935;28;20097;-78
2022/05/29 11:40:00;;;;;;;17.55;3.08;;;;;;;20.63;51.32;99731.16;4962326;28;20034;-78
2022/05/29 11:42:34;;;;;;;8.27;2.58;;;;;;;20.89;51.16;99787.59;4976716;28;20411;-77
2022/05/29 11:45:13;;;;;;;9.18;2.55;;;;;;;21.72;50.20;99864.22;4978578;28;20905;-78
2022/05/29 11:53:19;;;;;;;13.80;2.53;;;;;;;21.10;49.68;99756.09;4976243;28;20031;-78
2022/05/29 11:55:47;;;;;;;7.07;2.50;;;;;;;21.10;47.09;99585.13;4977283;28;20594;-78
2022/05/29 11:58:22;;;;;;;10.68;2.53;;;;;;;21.51;50.68;99895.78;4956567;28;20034;-80
2022/05/29 12:01:02;;;;;;;13.15;2.58;;;;;;;20.72;52.68;99812.06;4966567;28;20046;-80
2022/05/29 12:03:44;;;;;;;8.38;2.40;;;;;;;21.85;48.87;99797.78;4989131;28;20448;-80
2022/05/29 12:06:30;;;;;;;10.57;3.72;;;;;;;21.53;52.00;99914.53;4969536;28;20046;-78
2022/05/29 12:09:28;;;;;;;10.40;3.20;;;;;;;22.06;49.12;99839.50;4968328;28;20483;-80
2022/05/29 12:12:13;;;;;;;15.20;3.22;;;;;;;21.35;49.41;99663.19;4967884;28;20471;-80